Time;durP1;ratioP1;P1;durP2;ratioP2;P2;SDS_P1;SDS_P2;PMS_P1;PMS_P2;Temp;Humidity;BMP_temperature;BMP_pressure;BME280_temperature;BME280_humidity;BME280_pressure;Samples;Min_cycle;Max_cycle;Signal;HPM_P1;HPM_P2
2022/01/10 00:02:18;;;;;;;15.13;11.90;;;;;;;;;;5133925;27;20637;-90
2022/01/10 00:04:45;;;;;;;11.77;10.57;;;;;;;;;;5133595;27;20190;-89
2022/01/10 00:07:13;;;;;;;11.40;9.87;;;;;;;;;;5133690;27;20228;-89
2022/01/10 00:09:40;;;;;;;13.20;11.07;;;;;;;;;;5137015;27;20205;-90
2022/01/10 00:12:08;;;;;;;11.10;9.80;;;;;;;;;;5137892;27;20191;-90
2022/01/10 00:14:36;;;;;;;12.20;9.93;;;;;;;;;;5137793;27;20197;-91
2022/01/10 00:17:05;;;;;;;13.57;10.53;;;;;;;;;;5137846;27;20201;-90
2022/01/10 00:19:32;;;;;;;11.10;9.27;;;;;;;;;;5138000;27;20186;-90
2022/01/10 00:22:00;;;;;;;12.37;10.57;;;;;;;;;;5138360;27;20202;-90
2022/01/10 00:24:27;;;;;;;12.47;10.70;;;;;;;;;;5138022;27;20194;-90
2022/01/10 00:26:54;;;;;;;12.30;10.73;;;;;;;;;;5137753;27;20305;-89
2022/01/10 00:29:22;;;;;;;15.20;9.53;;;;;;;;;;5137687;27;20205;-89
2022/01/10 00:31:49;;;;;;;12.70;10.53;;;;;;;;;;5137696;27;20193;-89
2022/01/10 00:34:18;;;;;;;20.43;16.27;;;;;;;;;;5137466;27;20187;-90
2022/01/10 00:36:45;;;;;;;13.00;10.93;;;;;;;;;;5137547;27;20206;-90
2022/01/10 00:39:13;;;;;;;13.00;11.20;;;;;;;;;;5137220;27;20206;-91
2022/01/10 00:41:40;;;;;;;11.40;9.97;;;;;;;;;;5137406;27;20667;-89
2022/01/10 00:44:09;;;;;;;12.70;10.80;;;;;;;;;;5137909;27;20221;-89
2022/01/10 00:46:37;;;;;;;13.17;11.17;;;;;;;;;;5137262;27;20283;-90
2022/01/10 00:49:04;;;;;;;13.13;11.70;;;;;;;;;;5137234;27;20195;-90
2022/01/10 00:51:33;;;;;;;13.00;10.80;;;;;;;;;;5137420;27;20286;-90
2022/01/10 00:54:00;;;;;;;9.77;8.23;;;;;;;;;;5137381;27;20286;-90
2022/01/10 00:56:28;;;;;;;9.63;7.83;;;;;;;;;;5136839;27;20190;-90
2022/01/10 00:58:55;;;;;;;10.33;8.47;;;;;;;;;;5137229;27;20281;-90
2022/01/10 01:01:22;;;;;;;9.97;7.60;;;;;;;;;;5136804;27;20199;-89
2022/01/10 01:03:49;;;;;;;14.60;8.73;;;;;;;;;;5137303;27;20226;-90
2022/01/10 01:06:17;;;;;;;9.07;8.00;;;;;;;;;;5137092;27;20194;-90
2022/01/10 01:08:46;;;;;;;14.37;12.97;;;;;;;;;;5137042;27;20662;-91
2022/01/10 01:13:58;;;;;;;9.23;8.33;;;;;;;;;;5136388;27;20198;-90
2022/01/10 01:16:43;;;;;;;12.43;11.23;;;;;;;;;;5136609;27;20183;-91
2022/01/10 01:24:39;;;;;;;10.47;7.60;;;;;;;;;;5136557;27;20182;-90
2022/01/10 01:27:07;;;;;;;9.03;7.77;;;;;;;;;;5136466;27;20194;-91
2022/01/10 01:29:35;;;;;;;7.70;6.87;;;;;;;;;;5136722;27;20199;-91
2022/01/10 01:32:02;;;;;;;7.80;7.00;;;;;;;;;;5136313;27;20281;-89
2022/01/10 01:34:30;;;;;;;7.80;7.00;;;;;;;;;;5136452;27;20227;-90
2022/01/10 01:36:57;;;;;;;8.33;6.87;;;;;;;;;;5136500;27;20659;-91
2022/01/10 01:39:29;;;;;;;8.60;6.73;;;;;;;;;;5136108;27;20191;-90
2022/01/10 01:42:02;;;;;;;12.93;6.73;;;;;;;;;;5136929;27;20283;-90
2022/01/10 01:44:30;;;;;;;8.47;7.47;;;;;;;;;;5136226;27;20553;-91
2022/01/10 01:46:57;;;;;;;9.63;7.10;;;;;;;;;;5136259;27;20214;-91
2022/01/10 01:49:25;;;;;;;9.17;7.17;;;;;;;;;;5136492;27;20187;-90
2022/01/10 01:51:52;;;;;;;8.43;7.17;;;;;;;;;;5136149;27;20187;-90
2022/01/10 01:54:20;;;;;;;7.67;6.80;;;;;;;;;;5135814;27;20191;-90
2022/01/10 01:56:49;;;;;;;9.77;7.73;;;;;;;;;;5136055;27;20233;-91
2022/01/10 01:59:18;;;;;;;7.57;6.43;;;;;;;;;;5136018;27;20279;-90
2022/01/10 02:01:46;;;;;;;8.30;6.53;;;;;;;;;;5136474;27;20286;-88
2022/01/10 02:04:13;;;;;;;9.73;6.77;;;;;;;;;;5135905;27;20199;-90
2022/01/10 02:06:41;;;;;;;9.13;8.13;;;;;;;;;;5135950;27;20619;-91
2022/01/10 02:09:08;;;;;;;9.13;7.87;;;;;;;;;;5135381;27;20218;-89
2022/01/10 02:11:35;;;;;;;10.10;8.03;;;;;;;;;;5135502;27;20191;-90
2022/01/10 02:14:04;;;;;;;8.50;7.57;;;;;;;;;;5135741;27;20199;-90
2022/01/10 02:16:41;;;;;;;8.87;7.87;;;;;;;;;;5135491;27;20202;-90
2022/01/10 02:19:08;;;;;;;10.23;8.67;;;;;;;;;;5135635;27;20194;-90
2022/01/10 02:21:38;;;;;;;9.63;8.63;;;;;;;;;;5135588;27;20210;-90
2022/01/10 02:24:06;;;;;;;11.03;8.77;;;;;;;;;;5135654;27;20199;-89
2022/01/10 02:26:33;;;;;;;10.37;8.47;;;;;;;;;;5135373;27;20214;-89
2022/01/10 02:29:01;;;;;;;9.17;8.27;;;;;;;;;;5135100;27;20249;-90
2022/01/10 02:31:28;;;;;;;10.30;8.97;;;;;;;;;;5135000;27;20190;-90
2022/01/10 02:33:57;;;;;;;8.93;8.03;;;;;;;;;;5135115;27;20198;-90
2022/01/10 02:36:26;;;;;;;9.53;7.90;;;;;;;;;;5135394;27;20659;-89
2022/01/10 02:38:57;;;;;;;9.03;7.87;;;;;;;;;;5134883;27;20198;-90
2022/01/10 02:41:26;;;;;;;10.40;9.10;;;;;;;;;;5135211;27;20565;-89
2022/01/10 02:43:55;;;;;;;9.70;8.70;;;;;;;;;;5134957;27;20658;-90
2022/01/10 02:46:23;;;;;;;10.80;8.63;;;;;;;;;;5134821;27;20258;-90
2022/01/10 02:48:51;;;;;;;10.40;9.37;;;;;;;;;;5135126;27;20309;-90
2022/01/10 02:51:19;;;;;;;11.80;9.40;;;;;;;;;;5135293;27;20198;-89
2022/01/10 02:53:46;;;;;;;9.93;8.00;;;;;;;;;;5135000;27;20194;-90
2022/01/10 02:56:15;;;;;;;9.77;8.77;;;;;;;;;;5134920;27;20217;-90
2022/01/10 02:58:43;;;;;;;11.77;10.10;;;;;;;;;;5135258;27;20199;-89
2022/01/10 03:01:10;;;;;;;16.20;10.03;;;;;;;;;;5134536;27;20195;-91
2022/01/10 03:03:38;;;;;;;10.20;8.73;;;;;;;;;;5134470;27;20198;-90
2022/01/10 03:06:05;;;;;;;10.63;9.47;;;;;;;;;;5135190;27;20198;-90
2022/01/10 03:08:33;;;;;;;10.90;9.70;;;;;;;;;;5134522;27;20215;-90
2022/01/10 03:11:01;;;;;;;11.63;9.47;;;;;;;;;;5134440;27;20194;-90
2022/01/10 03:13:29;;;;;;;12.97;10.57;;;;;;;;;;5134636;27;20199;-90
2022/01/10 03:15:57;;;;;;;11.37;9.90;;;;;;;;;;5134468;27;20259;-90
2022/01/10 03:18:24;;;;;;;13.47;10.23;;;;;;;;;;5134417;27;20281;-90
2022/01/10 03:20:51;;;;;;;12.07;10.73;;;;;;;;;;5134218;27;20202;-90
2022/01/10 03:23:19;;;;;;;11.40;9.37;;;;;;;;;;5134085;27;20286;-90
2022/01/10 03:25:46;;;;;;;11.53;10.30;;;;;;;;;;5134416;27;20258;-89
2022/01/10 03:28:15;;;;;;;13.37;11.07;;;;;;;;;;5134255;27;20273;-90
2022/01/10 03:30:44;;;;;;;13.83;10.00;;;;;;;;;;5134050;27;20614;-89
2022/01/10 03:33:11;;;;;;;14.53;11.10;;;;;;;;;;5134516;27;20194;-90
2022/01/10 03:35:39;;;;;;;11.33;10.13;;;;;;;;;;5134419;27;20285;-89
2022/01/10 03:38:06;;;;;;;10.63;9.40;;;;;;;;;;5133908;27;20195;-90
2022/01/10 03:40:34;;;;;;;12.07;10.07;;;;;;;;;;5134199;27;20199;-90
2022/01/10 03:43:01;;;;;;;12.60;10.37;;;;;;;;;;5133703;27;20226;-89
2022/01/10 03:45:28;;;;;;;12.27;9.33;;;;;;;;;;5133755;27;20228;-90
2022/01/10 03:47:57;;;;;;;11.77;9.80;;;;;;;;;;5133749;27;20313;-90
2022/01/10 03:50:25;;;;;;;12.10;9.77;;;;;;;;;;5133740;27;20199;-90
2022/01/10 03:52:52;;;;;;;12.17;10.63;;;;;;;;;;5133705;27;20243;-90
2022/01/10 03:55:20;;;;;;;12.47;11.17;;;;;;;;;;5133798;27;20271;-89
2022/01/10 03:57:47;;;;;;;14.43;11.43;;;;;;;;;;5133934;27;20191;-89
2022/01/10 04:00:15;;;;;;;15.57;11.57;;;;;;;;;;5133673;27;20199;-90
2022/01/10 04:02:47;;;;;;;12.00;10.80;;;;;;;;;;5133531;27;20199;-90
2022/01/10 04:05:16;;;;;;;10.93;9.70;;;;;;;;;;5133958;27;20728;-90
2022/01/10 04:07:44;;;;;;;11.00;9.87;;;;;;;;;;5133844;27;20651;-89
2022/01/10 04:10:11;;;;;;;11.67;9.07;;;;;;;;;;5133583;27;20750;-90
2022/01/10 04:12:38;;;;;;;13.17;10.47;;;;;;;;;;5133704;27;20191;-89
2022/01/10 04:15:08;;;;;;;12.03;9.20;;;;;;;;;;5133645;27;20213;-90
2022/01/10 04:17:35;;;;;;;11.47;8.77;;;;;;;;;;5133764;27;20186;-89
2022/01/10 04:20:03;;;;;;;11.10;10.00;;;;;;;;;;5133899;27;20744;-89
2022/01/10 04:22:32;;;;;;;11.50;9.97;;;;;;;;;;5133641;27;20221;-88
2022/01/10 04:25:01;;;;;;;11.23;10.03;;;;;;;;;;5133475;27;20568;-90
2022/01/10 04:27:32;;;;;;;11.80;9.97;;;;;;;;;;5133092;27;20201;-92
2022/01/10 04:29:59;;;;;;;11.60;9.47;;;;;;;;;;5111520;28;20223;-90
2022/01/10 04:32:29;;;;;;;11.70;10.50;;;;;;;;;;5112978;28;20228;-90
2022/01/10 04:34:57;;;;;;;13.70;9.37;;;;;;;;;;5113535;28;20192;-91
2022/01/10 04:37:24;;;;;;;11.27;9.27;;;;;;;;;;5112976;28;20202;-93
2022/01/10 04:39:53;;;;;;;11.27;9.63;;;;;;;;;;5113583;28;20296;-94
2022/01/10 04:42:21;;;;;;;12.33;10.23;;;;;;;;;;5114729;28;20200;-95
2022/01/10 04:44:49;;;;;;;12.73;9.90;;;;;;;;;;5113143;28;20696;-92
2022/01/10 04:47:17;;;;;;;10.60;9.40;;;;;;;;;;5113039;28;20278;-92
2022/01/10 04:50:04;;;;;;;12.30;9.90;;;;;;;;;;5112736;28;20219;-91
2022/01/10 04:52:32;;;;;;;12.53;10.23;;;;;;;;;;5113150;28;20551;-90
2022/01/10 04:55:01;;;;;;;11.33;9.63;;;;;;;;;;5112969;28;20629;-92
2022/01/10 04:57:29;;;;;;;10.77;9.57;;;;;;;;;;5116333;27;20222;-91
2022/01/10 05:03:19;;;;;;;10.73;8.87;;;;;;;;;;4989428;28;20202;-91
2022/01/10 05:05:48;;;;;;;12.13;10.00;;;;;;;;;;5116432;27;20219;-92
2022/01/10 05:08:16;;;;;;;11.80;9.33;;;;;;;;;;5116107;28;20253;-92
2022/01/10 05:10:45;;;;;;;11.80;10.17;;;;;;;;;;5116360;28;20286;-91
2022/01/10 05:13:12;;;;;;;16.00;12.77;;;;;;;;;;5116524;28;20635;-91
2022/01/10 05:15:42;;;;;;;15.33;12.90;;;;;;;;;;5116185;28;20260;-91
2022/01/10 05:18:09;;;;;;;15.13;12.47;;;;;;;;;;5116144;28;20199;-92
2022/01/10 05:20:37;;;;;;;14.63;12.13;;;;;;;;;;5115918;28;20199;-91
2022/01/10 05:23:04;;;;;;;14.57;12.80;;;;;;;;;;5116191;27;20713;-91
2022/01/10 05:25:34;;;;;;;14.07;12.00;;;;;;;;;;5116683;28;20195;-92
2022/01/10 05:28:03;;;;;;;12.83;11.50;;;;;;;;;;5115807;28;20218;-90
2022/01/10 05:30:30;;;;;;;11.67;10.47;;;;;;;;;;5116047;28;20255;-92
2022/01/10 05:32:57;;;;;;;12.23;10.70;;;;;;;;;;5116176;28;20578;-91
2022/01/10 05:35:25;;;;;;;15.63;13.93;;;;;;;;;;5116145;27;20282;-91
2022/01/10 05:37:52;;;;;;;16.03;14.33;;;;;;;;;;5116202;28;20259;-90
2022/01/10 05:40:20;;;;;;;21.07;15.40;;;;;;;;;;5115875;28;20264;-92
2022/01/10 05:42:47;;;;;;;10.17;9.17;;;;;;;;;;5115654;28;20194;-91
2022/01/10 05:45:16;;;;;;;11.57;9.60;;;;;;;;;;5115246;27;20231;-89
2022/01/10 05:47:45;;;;;;;13.50;11.80;;;;;;;;;;5115515;28;20195;-91
2022/01/10 05:50:16;;;;;;;12.87;11.13;;;;;;;;;;5115350;28;20215;-92
2022/01/10 05:52:43;;;;;;;12.53;10.10;;;;;;;;;;5116228;28;20652;-91
2022/01/10 05:55:11;;;;;;;9.97;9.00;;;;;;;;;;5115304;28;20195;-93
2022/01/10 05:57:39;;;;;;;12.03;10.93;;;;;;;;;;5115627;28;20256;-92
2022/01/10 06:00:56;;;;;;;10.67;9.60;;;;;;;;;;5115608;28;20630;-92
2022/01/10 06:06:48;;;;;;;8.10;7.30;;;;;;;;;;5027350;28;20678;-92
2022/01/10 06:09:16;;;;;;;6.63;6.03;;;;;;;;;;5052962;28;20222;-92
2022/01/10 06:11:43;;;;;;;6.87;6.23;;;;;;;;;;5052773;28;20202;-91
2022/01/10 06:14:10;;;;;;;5.87;5.30;;;;;;;;;;5052868;28;20202;-90
2022/01/10 06:16:38;;;;;;;6.93;6.20;;;;;;;;;;5052762;28;20229;-91
2022/01/10 06:19:05;;;;;;;7.83;7.13;;;;;;;;;;5053039;28;20286;-91
2022/01/10 06:21:32;;;;;;;7.93;7.13;;;;;;;;;;5052558;28;20206;-91
2022/01/10 06:24:01;;;;;;;6.93;6.23;;;;;;;;;;5052770;28;20196;-91
2022/01/10 06:26:29;;;;;;;6.27;5.53;;;;;;;;;;5052846;28;20738;-92
2022/01/10 06:28:56;;;;;;;6.40;5.73;;;;;;;;;;5052237;28;20700;-91
2022/01/10 06:31:23;;;;;;;7.33;6.30;;;;;;;;;;5097129;28;20196;-91
2022/01/10 06:33:50;;;;;;;7.97;6.53;;;;;;;;;;5114542;28;20198;-92
2022/01/10 06:36:18;;;;;;;6.57;5.93;;;;;;;;;;5114524;28;20282;-91
2022/01/10 06:38:45;;;;;;;7.17;6.23;;;;;;;;;;5115138;28;20184;-92
2022/01/10 06:41:14;;;;;;;7.60;6.80;;;;;;;;;;5114330;28;20660;-91
2022/01/10 06:43:41;;;;;;;7.80;7.10;;;;;;;;;;5114486;28;20248;-91
2022/01/10 06:46:09;;;;;;;7.27;6.57;;;;;;;;;;5114265;28;20239;-91
2022/01/10 06:48:36;;;;;;;5.63;5.13;;;;;;;;;;5114797;28;20227;-90
2022/01/10 06:51:03;;;;;;;6.63;5.93;;;;;;;;;;5114378;27;20290;-91
2022/01/10 06:53:31;;;;;;;7.90;6.70;;;;;;;;;;5114182;28;20195;-91
2022/01/10 06:55:58;;;;;;;6.60;6.00;;;;;;;;;;5114351;28;20656;-91
2022/01/10 06:58:27;;;;;;;6.23;5.73;;;;;;;;;;5114072;28;20195;-91
2022/01/10 07:00:54;;;;;;;6.80;6.20;;;;;;;;;;5114283;28;20196;-91
2022/01/10 07:03:21;;;;;;;6.07;5.47;;;;;;;;;;5114091;28;20249;-91
2022/01/10 07:05:48;;;;;;;5.90;5.30;;;;;;;;;;5114090;28;20287;-90
2022/01/10 07:08:16;;;;;;;6.60;5.63;;;;;;;;;;5114003;28;20210;-91
2022/01/10 07:10:43;;;;;;;6.80;6.17;;;;;;;;;;5114192;28;20292;-90
2022/01/10 07:13:10;;;;;;;5.60;4.87;;;;;;;;;;5114094;28;20227;-91
2022/01/10 07:15:39;;;;;;;6.67;5.03;;;;;;;;;;5114401;28;20339;-90
2022/01/10 07:18:07;;;;;;;5.63;5.00;;;;;;;;;;5113052;28;20235;-91
2022/01/10 07:20:34;;;;;;;6.50;5.70;;;;;;;;;;5114037;28;20195;-91
2022/01/10 07:23:01;;;;;;;5.97;5.37;;;;;;;;;;5114211;28;20261;-91
2022/01/10 07:25:29;;;;;;;5.50;5.00;;;;;;;;;;5114020;28;20195;-91
2022/01/10 07:27:56;;;;;;;7.00;5.63;;;;;;;;;;5113557;28;20202;-90
2022/01/10 07:30:25;;;;;;;5.23;4.60;;;;;;;;;;5112802;28;20219;-90
2022/01/10 07:32:54;;;;;;;8.77;7.87;;;;;;;;;;5113496;28;20248;-91
2022/01/10 07:35:22;;;;;;;6.37;5.83;;;;;;;;;;5114250;28;20203;-90
2022/01/10 07:37:49;;;;;;;5.30;4.80;;;;;;;;;;5113478;28;20673;-89
2022/01/10 07:40:16;;;;;;;5.93;5.33;;;;;;;;;;5113667;28;20208;-90
2022/01/10 07:42:44;;;;;;;6.20;5.53;;;;;;;;;;5113978;28;20250;-92
2022/01/10 07:45:11;;;;;;;5.77;5.27;;;;;;;;;;5113213;28;20230;-90
2022/01/10 07:47:41;;;;;;;6.57;5.97;;;;;;;;;;5113285;28;20191;-90
2022/01/10 07:50:10;;;;;;;6.37;5.53;;;;;;;;;;5113174;28;20223;-90
2022/01/10 07:52:38;;;;;;;5.03;4.27;;;;;;;;;;5113228;28;20286;-90
2022/01/10 07:55:06;;;;;;;4.80;4.37;;;;;;;;;;5113267;28;20195;-90
2022/01/10 07:57:33;;;;;;;7.97;7.27;;;;;;;;;;5113188;28;20290;-91
2022/01/10 08:00:01;;;;;;;5.13;4.63;;;;;;;;;;5113594;28;20546;-90
2022/01/10 08:02:28;;;;;;;6.23;5.53;;;;;;;;;;5113372;28;20210;-91
2022/01/10 08:04:59;;;;;;;8.83;7.10;;;;;;;;;;5113104;28;20191;-90
2022/01/10 08:07:27;;;;;;;6.23;5.63;;;;;;;;;;5113111;28;20191;-90
2022/01/10 08:09:55;;;;;;;7.53;6.80;;;;;;;;;;5112957;28;20733;-91
2022/01/10 08:12:22;;;;;;;11.37;10.13;;;;;;;;;;5113242;28;20218;-91
2022/01/10 08:14:49;;;;;;;7.67;6.97;;;;;;;;;;5113051;28;20286;-91
2022/01/10 08:17:17;;;;;;;10.27;9.27;;;;;;;;;;5113366;28;20188;-90
2022/01/10 08:19:44;;;;;;;9.93;8.90;;;;;;;;;;5113081;28;20187;-90
2022/01/10 08:22:11;;;;;;;7.20;6.50;;;;;;;;;;5113333;28;20256;-91
2022/01/10 08:24:40;;;;;;;6.20;5.47;;;;;;;;;;5113203;28;20207;-91
2022/01/10 08:27:08;;;;;;;7.30;6.60;;;;;;;;;;5113427;28;20187;-91
2022/01/10 08:29:35;;;;;;;10.03;8.67;;;;;;;;;;5114144;28;20223;-90
2022/01/10 08:32:02;;;;;;;5.57;4.97;;;;;;;;;;5117002;28;20207;-91
2022/01/10 08:34:30;;;;;;;7.33;6.60;;;;;;;;;;5116867;28;20203;-89
2022/01/10 08:36:57;;;;;;;11.63;9.17;;;;;;;;;;5116729;28;20202;-91
2022/01/10 08:39:25;;;;;;;10.30;8.30;;;;;;;;;;5116767;28;20199;-90
2022/01/10 08:41:54;;;;;;;9.77;8.20;;;;;;;;;;5116987;28;20620;-91
2022/01/10 08:44:21;;;;;;;13.00;10.30;;;;;;;;;;5116856;28;20192;-90
2022/01/10 08:46:49;;;;;;;15.10;13.33;;;;;;;;;;5116944;28;20199;-92
2022/01/10 08:49:16;;;;;;;7.57;6.77;;;;;;;;;;5117277;28;20224;-91
2022/01/10 08:51:45;;;;;;;9.87;8.60;;;;;;;;;;5116956;28;20253;-92
2022/01/10 08:54:13;;;;;;;11.67;10.47;;;;;;;;;;5116729;28;20206;-92
2022/01/10 08:56:41;;;;;;;7.37;6.67;;;;;;;;;;5116662;28;20196;-92
2022/01/10 08:59:10;;;;;;;5.97;5.30;;;;;;;;;;5116645;28;20213;-93
2022/01/10 09:01:37;;;;;;;10.73;7.27;;;;;;;;;;5116552;28;20217;-94
2022/01/10 09:04:05;;;;;;;8.60;7.47;;;;;;;;;;5116681;28;20187;-94
2022/01/10 09:06:33;;;;;;;7.40;6.70;;;;;;;;;;5116507;28;20187;-96
2022/01/10 09:09:00;;;;;;;7.97;7.20;;;;;;;;;;5117503;28;20259;-94
2022/01/10 09:11:27;;;;;;;7.40;6.70;;;;;;;;;;5117361;28;20647;-94
2022/01/10 09:13:55;;;;;;;7.67;6.93;;;;;;;;;;5117172;28;20366;-94
2022/01/10 09:16:24;;;;;;;5.80;5.23;;;;;;;;;;5118038;28;20194;-94
2022/01/10 09:18:51;;;;;;;6.43;5.83;;;;;;;;;;5117518;28;20656;-95
2022/01/10 09:21:19;;;;;;;7.63;6.13;;;;;;;;;;5116381;28;20196;-94
2022/01/10 09:23:46;;;;;;;8.00;7.27;;;;;;;;;;5117203;28;20635;-94
2022/01/10 09:26:14;;;;;;;9.13;7.63;;;;;;;;;;5119181;28;20244;-93
2022/01/10 09:28:42;;;;;;;10.77;8.63;;;;;;;;;;5116246;28;20192;-93
2022/01/10 09:31:10;;;;;;;10.67;9.60;;;;;;;;;;5116091;28;20223;-92
2022/01/10 09:33:39;;;;;;;11.43;10.23;;;;;;;;;;5115952;27;20219;-93
2022/01/10 09:36:06;;;;;;;9.17;7.70;;;;;;;;;;5116445;28;20608;-92
2022/01/10 09:38:34;;;;;;;13.90;12.43;;;;;;;;;;5115990;28;20205;-93
2022/01/10 09:41:01;;;;;;;17.73;15.53;;;;;;;;;;5115873;28;20286;-93
2022/01/10 09:43:29;;;;;;;17.07;14.93;;;;;;;;;;5116682;27;20234;-92
2022/01/10 09:45:57;;;;;;;30.87;27.53;;;;;;;;;;5115972;28;20227;-93
2022/01/10 09:48:24;;;;;;;20.73;18.43;;;;;;;;;;5117297;28;20217;-93
2022/01/10 09:50:53;;;;;;;12.17;10.93;;;;;;;;;;5115591;28;20222;-92
2022/01/10 09:53:22;;;;;;;9.63;8.13;;;;;;;;;;5115794;28;20282;-93
2022/01/10 09:55:49;;;;;;;14.80;13.30;;;;;;;;;;5116436;28;20195;-92
2022/01/10 09:58:17;;;;;;;10.60;9.50;;;;;;;;;;5116382;28;20202;-92
2022/01/10 10:00:45;;;;;;;9.57;8.53;;;;;;;;;;5116687;28;20210;-92
2022/01/10 10:03:12;;;;;;;8.40;7.60;;;;;;;;;;5121303;28;20207;-92
2022/01/10 10:05:40;;;;;;;8.03;7.00;;;;;;;;;;5123053;28;20191;-93
2022/01/10 10:08:09;;;;;;;10.10;7.77;;;;;;;;;;5126058;28;20224;-92
2022/01/10 10:10:37;;;;;;;8.57;7.43;;;;;;;;;;5120155;28;20670;-93
2022/01/10 10:13:05;;;;;;;9.00;7.97;;;;;;;;;;5121692;28;20195;-92
2022/01/10 10:15:35;;;;;;;7.63;6.93;;;;;;;;;;5120577;28;20187;-93
2022/01/10 10:18:03;;;;;;;7.30;6.60;;;;;;;;;;5115979;28;20206;-94
2022/01/10 10:20:30;;;;;;;7.20;6.40;;;;;;;;;;5117866;28;20730;-93
2022/01/10 10:22:58;;;;;;;11.53;9.97;;;;;;;;;;5116473;28;20573;-93
2022/01/10 10:25:27;;;;;;;10.67;9.67;;;;;;;;;;5115772;27;20209;-93
2022/01/10 10:27:55;;;;;;;11.47;10.30;;;;;;;;;;5116077;28;20191;-93
2022/01/10 10:30:27;;;;;;;25.80;20.67;;;;;;;;;;5114904;28;20219;-93
2022/01/10 10:33:11;;;;;;;7.70;7.00;;;;;;;;;;5115221;28;20631;-93
2022/01/10 10:35:39;;;;;;;7.67;6.97;;;;;;;;;;5116020;28;20195;-93
2022/01/10 10:38:06;;;;;;;28.53;25.00;;;;;;;;;;5114661;28;20639;-93
2022/01/10 10:40:40;;;;;;;5.77;5.27;;;;;;;;;;5114513;28;20194;-93
2022/01/10 10:43:08;;;;;;;12.27;11.07;;;;;;;;;;5115166;28;20722;-93
2022/01/10 10:45:36;;;;;;;10.07;9.03;;;;;;;;;;5114972;28;20254;-94
2022/01/10 10:48:07;;;;;;;7.87;6.93;;;;;;;;;;5115456;28;20200;-93
2022/01/10 10:50:41;;;;;;;12.43;11.23;;;;;;;;;;5114957;28;20306;-94
2022/01/10 10:53:10;;;;;;;10.60;9.60;;;;;;;;;;5113627;28;20199;-94
2022/01/10 10:55:41;;;;;;;12.07;10.97;;;;;;;;;;5114634;28;20199;-95
2022/01/10 10:58:09;;;;;;;9.87;8.87;;;;;;;;;;5115281;28;20614;-93
2022/01/10 11:00:37;;;;;;;11.90;10.90;;;;;;;;;;5114543;27;20290;-94
2022/01/10 11:03:05;;;;;;;13.30;12.17;;;;;;;;;;5114464;28;20192;-94
2022/01/10 11:05:33;;;;;;;12.37;11.30;;;;;;;;;;5114312;28;20191;-95
2022/01/10 11:08:01;;;;;;;31.07;22.30;;;;;;;;;;5114755;28;20574;-94
2022/01/10 11:10:29;;;;;;;30.70;21.53;;;;;;;;;;5114320;28;20226;-94
2022/01/10 11:13:00;;;;;;;11.43;9.03;;;;;;;;;;5114309;28;20191;-95
2022/01/10 11:15:28;;;;;;;7.20;6.60;;;;;;;;;;5114266;28;20202;-94
2022/01/10 11:18:01;;;;;;;6.40;5.77;;;;;;;;;;5114085;28;20192;-95
2022/01/10 11:20:29;;;;;;;4.83;4.43;;;;;;;;;;5114122;28;20211;-95
2022/01/10 11:22:58;;;;;;;5.87;5.37;;;;;;;;;;5113959;28;20206;-94
2022/01/10 11:25:28;;;;;;;6.33;5.83;;;;;;;;;;5114125;28;20195;-94
2022/01/10 11:28:00;;;;;;;4.57;4.17;;;;;;;;;;5114635;28;20217;-95
2022/01/10 11:30:33;;;;;;;5.33;4.83;;;;;;;;;;5114002;28;20219;-94
2022/01/10 11:33:07;;;;;;;8.63;7.83;;;;;;;;;;5114101;28;20206;-94
2022/01/10 11:35:36;;;;;;;9.07;8.33;;;;;;;;;;5114125;28;20648;-94
2022/01/10 11:38:22;;;;;;;8.27;7.60;;;;;;;;;;5113876;28;20211;-95
2022/01/10 11:40:50;;;;;;;14.83;13.53;;;;;;;;;;5115337;28;20215;-94
2022/01/10 11:43:35;;;;;;;11.50;10.50;;;;;;;;;;5115827;28;20191;-96
2022/01/10 11:46:18;;;;;;;7.70;7.10;;;;;;;;;;5116053;28;20234;-96
2022/01/10 11:48:51;;;;;;;6.60;6.10;;;;;;;;;;5118042;28;20218;-94
2022/01/10 11:51:21;;;;;;;10.60;9.60;;;;;;;;;;5116445;28;20230;-94
2022/01/10 11:53:52;;;;;;;12.80;9.50;;;;;;;;;;5115441;28;20278;-96
2022/01/10 11:56:31;;;;;;;7.93;7.23;;;;;;;;;;5113920;28;20315;-94
2022/01/10 11:59:17;;;;;;;12.83;10.03;;;;;;;;;;5113880;28;20201;-94
2022/01/10 12:01:47;;;;;;;7.40;6.70;;;;;;;;;;5113611;28;20184;-94
2022/01/10 12:04:15;;;;;;;6.33;5.77;;;;;;;;;;5115088;28;20282;-96
2022/01/10 12:06:43;;;;;;;4.87;4.43;;;;;;;;;;5118003;28;20233;-96
2022/01/10 12:09:11;;;;;;;4.63;4.23;;;;;;;;;;5117569;28;20282;-94
2022/01/10 12:11:39;;;;;;;5.93;5.33;;;;;;;;;;5117767;28;20698;-93
2022/01/10 12:14:08;;;;;;;5.47;4.97;;;;;;;;;;5122027;28;20192;-94
2022/01/10 12:16:38;;;;;;;5.27;4.77;;;;;;;;;;5118648;28;20226;-94
2022/01/10 12:19:06;;;;;;;6.20;5.63;;;;;;;;;;5118525;27;20219;-94
2022/01/10 12:21:34;;;;;;;6.17;5.57;;;;;;;;;;5118866;28;20252;-95
2022/01/10 12:24:01;;;;;;;10.70;8.13;;;;;;;;;;5119430;28;20191;-94
2022/01/10 12:26:29;;;;;;;11.17;8.67;;;;;;;;;;5119625;28;20264;-94
2022/01/10 12:29:01;;;;;;;10.23;7.23;;;;;;;;;;5119350;27;20667;-95
2022/01/10 12:31:29;;;;;;;8.00;6.40;;;;;;;;;;5118663;28;20291;-94
2022/01/10 12:34:00;;;;;;;18.40;16.13;;;;;;;;;;5119091;28;20199;-94
2022/01/10 12:36:28;;;;;;;10.80;9.80;;;;;;;;;;5118266;28;20278;-92
2022/01/10 12:38:59;;;;;;;13.27;11.97;;;;;;;;;;5117491;28;20249;-94
2022/01/10 12:41:27;;;;;;;7.60;6.90;;;;;;;;;;5117501;28;20206;-93
2022/01/10 12:43:55;;;;;;;7.43;6.70;;;;;;;;;;5117347;28;20252;-94
2022/01/10 12:46:27;;;;;;;14.13;12.67;;;;;;;;;;5117764;28;20281;-95
2022/01/10 12:48:55;;;;;;;7.00;6.30;;;;;;;;;;5119478;28;20200;-95
2022/01/10 12:51:24;;;;;;;8.43;7.63;;;;;;;;;;5118240;28;20224;-94
2022/01/10 12:53:51;;;;;;;23.53;21.20;;;;;;;;;;5119095;28;20256;-94
2022/01/10 12:56:21;;;;;;;12.50;11.20;;;;;;;;;;5117921;28;20195;-94
2022/01/10 12:58:49;;;;;;;16.70;14.73;;;;;;;;;;5117199;28;20195;-93
2022/01/10 13:01:17;;;;;;;10.00;9.00;;;;;;;;;;5116591;27;20294;-93
2022/01/10 13:03:50;;;;;;;7.20;6.60;;;;;;;;;;5117596;28;20252;-94
2022/01/10 13:06:18;;;;;;;6.20;5.60;;;;;;;;;;5116645;27;20196;-92
2022/01/10 13:08:48;;;;;;;6.03;5.43;;;;;;;;;;5116909;28;20191;-94
2022/01/10 13:11:17;;;;;;;14.37;12.90;;;;;;;;;;5116537;28;20230;-92
2022/01/10 13:13:46;;;;;;;20.17;18.07;;;;;;;;;;5117021;28;20187;-93
2022/01/10 13:16:24;;;;;;;21.33;19.23;;;;;;;;;;5115169;28;20282;-93
2022/01/10 13:18:59;;;;;;;17.37;15.67;;;;;;;;;;5116247;28;20212;-92
2022/01/10 13:21:37;;;;;;;26.67;23.87;;;;;;;;;;5116402;28;20202;-92
2022/01/10 13:24:14;;;;;;;32.30;28.23;;;;;;;;;;5116263;28;20666;-92
2022/01/10 13:27:00;;;;;;;21.97;19.77;;;;;;;;;;5116398;27;20563;-92
2022/01/10 13:29:39;;;;;;;17.43;15.73;;;;;;;;;;5116350;28;20199;-92
2022/01/10 13:32:17;;;;;;;21.73;19.63;;;;;;;;;;5116266;28;20223;-92
2022/01/10 13:34:45;;;;;;;11.00;10.00;;;;;;;;;;5115987;28;20195;-92
2022/01/10 13:37:13;;;;;;;27.20;22.17;;;;;;;;;;5115980;28;20207;-92
2022/01/10 13:39:42;;;;;;;27.00;22.60;;;;;;;;;;5115882;28;20282;-92
2022/01/10 13:42:10;;;;;;;8.40;7.17;;;;;;;;;;5115864;28;20203;-92
2022/01/10 13:44:59;;;;;;;11.67;10.53;;;;;;;;;;5115485;28;20210;-92
2022/01/10 13:47:26;;;;;;;12.50;11.20;;;;;;;;;;5115724;28;20195;-92
2022/01/10 13:49:53;;;;;;;8.57;7.13;;;;;;;;;;5116218;28;20215;-91
2022/01/10 13:52:21;;;;;;;10.47;7.47;;;;;;;;;;5115562;28;20230;-91
2022/01/10 13:54:50;;;;;;;13.20;9.03;;;;;;;;;;5115628;28;20206;-90
2022/01/10 13:57:24;;;;;;;5.97;5.47;;;;;;;;;;5115495;28;20219;-90
2022/01/10 14:00:13;;;;;;;9.37;8.47;;;;;;;;;;5115458;28;20203;-90
2022/01/10 14:02:43;;;;;;;26.07;20.93;;;;;;;;;;5115538;28;20199;-91
2022/01/10 14:05:21;;;;;;;18.53;16.53;;;;;;;;;;5115259;28;20192;-91
2022/01/10 14:07:48;;;;;;;6.47;5.87;;;;;;;;;;5115678;28;20187;-90
2022/01/10 14:10:18;;;;;;;6.23;5.63;;;;;;;;;;5115108;28;20192;-90
2022/01/10 14:12:46;;;;;;;6.07;5.57;;;;;;;;;;5115487;28;20257;-90
2022/01/10 14:15:13;;;;;;;6.03;4.97;;;;;;;;;;5115426;28;20200;-93
2022/01/10 14:17:41;;;;;;;4.10;3.70;;;;;;;;;;5115158;28;20195;-90
2022/01/10 14:20:09;;;;;;;3.80;3.33;;;;;;;;;;5115027;28;20207;-90
2022/01/10 14:22:37;;;;;;;5.27;4.17;;;;;;;;;;5115036;28;20244;-89
2022/01/10 14:25:05;;;;;;;5.47;4.97;;;;;;;;;;5115016;27;20199;-90
2022/01/10 14:27:34;;;;;;;4.33;3.97;;;;;;;;;;5114708;28;20218;-90
2022/01/10 14:30:02;;;;;;;4.13;3.73;;;;;;;;;;5114867;28;20278;-90
2022/01/10 14:32:29;;;;;;;14.70;13.30;;;;;;;;;;5114736;28;20219;-91
2022/01/10 14:34:57;;;;;;;5.77;5.27;;;;;;;;;;5114779;28;20191;-92
2022/01/10 14:37:24;;;;;;;5.93;5.43;;;;;;;;;;5115095;28;20287;-90
2022/01/10 14:39:52;;;;;;;4.37;4.07;;;;;;;;;;5115008;28;20207;-91
2022/01/10 14:42:19;;;;;;;5.40;4.90;;;;;;;;;;5114846;28;20237;-91
2022/01/10 14:44:48;;;;;;;7.20;6.33;;;;;;;;;;5114522;28;20262;-91
2022/01/10 14:47:16;;;;;;;5.97;5.47;;;;;;;;;;5114640;28;20226;-92
2022/01/10 14:49:43;;;;;;;4.90;4.40;;;;;;;;;;5114769;28;20692;-91
2022/01/10 14:52:12;;;;;;;4.30;3.90;;;;;;;;;;5114460;28;20219;-91
2022/01/10 14:54:40;;;;;;;4.30;3.93;;;;;;;;;;5114556;28;20256;-93
2022/01/10 14:57:07;;;;;;;5.23;4.27;;;;;;;;;;5115070;28;20543;-94
2022/01/10 14:59:35;;;;;;;4.43;4.03;;;;;;;;;;5114719;28;20215;-93